createdAt,value
2019-05-23T00:01:12.308Z,30.57
2019-05-23T00:03:17.635Z,32.63
2019-05-23T00:05:23.685Z,29.65
2019-05-23T00:07:29.205Z,31.73
2019-05-23T00:09:33.133Z,30.65
2019-05-23T00:11:40.147Z,30.72
2019-05-23T00:13:51.726Z,34.83
2019-05-23T00:15:55.945Z,32.23
2019-05-23T00:18:00.641Z,32.03
2019-05-23T00:20:07.403Z,33.48
2019-05-23T00:22:11.922Z,31.35
2019-05-23T00:24:15.639Z,32.80
2019-05-23T00:26:19.454Z,31.75
2019-05-23T00:28:23.269Z,29.10
2019-05-23T00:30:31.722Z,31.25
2019-05-23T00:32:43.128Z,31.75
2019-05-23T00:34:48.182Z,32.38
2019-05-23T00:36:54.552Z,29.80
2019-05-23T00:38:58.563Z,31.87
2019-05-23T00:41:02.884Z,30.30
2019-05-23T00:43:07.237Z,33.42
2019-05-23T00:45:13.213Z,29.70
2019-05-23T00:47:17.093Z,33.02
2019-05-23T00:49:21.946Z,30.97
2019-05-23T00:51:25.905Z,31.68
2019-05-23T00:53:31.126Z,34.45
2019-05-23T00:55:36.481Z,35.35
2019-05-23T00:57:41.663Z,34.43
2019-05-23T00:59:45.705Z,33.95
2019-05-23T01:01:49.667Z,33.63
2019-05-23T01:03:54.731Z,36.05
2019-05-23T01:06:00.175Z,35.88
2019-05-23T01:08:04.366Z,36.58
2019-05-23T01:10:09.822Z,36.30
2019-05-23T01:12:14.213Z,35.98
2019-05-23T01:14:18.421Z,36.73
2019-05-23T01:16:23.373Z,35.65
2019-05-23T01:18:26.925Z,38.17
2019-05-23T01:20:44.349Z,34.92
2019-05-23T01:22:49.681Z,36.28
2019-05-23T01:24:55.176Z,34.98
2019-05-23T01:26:59.949Z,37.17
2019-05-23T01:29:05.069Z,33.05
2019-05-23T01:31:13.717Z,39.35
2019-05-23T01:33:19.310Z,36.15
2019-05-23T01:35:23.686Z,35.63
2019-05-23T01:37:27.295Z,35.08
2019-05-23T01:39:30.944Z,32.98
2019-05-23T01:41:36.313Z,34.13
2019-05-23T01:43:40.501Z,34.05
2019-05-23T01:45:45.393Z,34.40
2019-05-23T01:47:50.250Z,33.73
2019-05-23T01:49:54.846Z,34.70
2019-05-23T01:51:59.675Z,33.30
2019-05-23T01:54:03.504Z,30.88
2019-05-23T01:56:07.126Z,31.25
2019-05-23T01:58:11.033Z,31.27
2019-05-23T02:00:16.657Z,29.90
2019-05-23T02:02:21.586Z,30.85
2019-05-23T02:04:25.227Z,28.10
2019-05-23T02:06:30.445Z,26.75
2019-05-23T02:08:35.210Z,27.93
2019-05-23T02:10:39.380Z,28.45
2019-05-23T02:12:44.762Z,27.73
2019-05-23T02:14:48.481Z,27.55
2019-05-23T02:16:52.734Z,28.57
2019-05-23T02:18:57.354Z,27.07
2019-05-23T02:21:01.536Z,28.57
2019-05-23T02:23:06.121Z,25.60
2019-05-23T02:25:12.542Z,25.90
2019-05-23T02:27:16.525Z,27.05
2019-05-23T02:29:20.545Z,25.88
2019-05-23T02:31:25.086Z,24.37
2019-05-23T02:33:29.709Z,27.50
2019-05-23T02:35:33.842Z,24.50
2019-05-23T02:37:39.485Z,23.87
2019-05-23T02:40:00.180Z,24.45
2019-05-23T02:42:21.498Z,24.20
2019-05-23T02:44:25.786Z,23.42
2019-05-23T02:46:30.969Z,24.18
2019-05-23T02:48:43.351Z,26.33
2019-05-23T02:50:53.239Z,23.12
2019-05-23T02:55:01.765Z,24.95
2019-05-23T02:57:07.528Z,24.80
2019-05-23T02:59:35.542Z,24.43
2019-05-23T03:01:58.726Z,25.55
2019-05-23T03:04:05.134Z,26.52
2019-05-23T03:06:12.056Z,27.77
2019-05-23T03:08:17.057Z,31.00
2019-05-23T03:10:24.067Z,29.90
2019-05-23T03:12:31.423Z,29.32
2019-05-23T03:14:37.034Z,31.68
2019-05-23T03:16:43.120Z,31.17
2019-05-23T03:18:50.547Z,29.37
2019-05-23T03:20:55.721Z,30.57
2019-05-23T03:23:13.113Z,33.58
2019-05-23T03:25:39.483Z,31.00
2019-05-23T03:27:45.543Z,33.67
2019-05-23T03:29:49.186Z,35.10
2019-05-23T03:31:54.944Z,36.25
2019-05-23T03:33:58.943Z,38.10
2019-05-23T03:36:04.139Z,37.63
2019-05-23T03:38:09.462Z,39.25
2019-05-23T03:40:13.833Z,42.45
2019-05-23T03:42:17.654Z,41.37
2019-05-23T03:44:22.164Z,42.70
2019-05-23T03:46:27.746Z,42.27
2019-05-23T03:48:31.829Z,43.90
2019-05-23T03:50:35.450Z,43.35
2019-05-23T03:52:39.332Z,45.28
2019-05-23T03:54:43.693Z,44.77
2019-05-23T03:56:48.396Z,42.60
2019-05-23T03:58:54.195Z,43.17
2019-05-23T04:00:59.990Z,47.23
2019-05-23T04:03:07.366Z,43.80
2019-05-23T04:05:12.144Z,45.05
2019-05-23T04:07:16.194Z,42.90
2019-05-23T04:09:20.168Z,44.00
2019-05-23T04:11:23.886Z,45.78
2019-05-23T04:13:27.465Z,48.50
2019-05-23T04:15:32.578Z,50.23
2019-05-23T04:17:36.662Z,48.73
2019-05-23T04:19:41.279Z,47.00
2019-05-23T04:21:45.257Z,49.65
2019-05-23T04:23:48.913Z,55.55
2019-05-23T04:25:53.066Z,53.78
2019-05-23T04:27:57.539Z,38.90
2019-05-23T04:30:01.527Z,34.25
2019-05-23T04:32:08.855Z,46.92
2019-05-23T04:34:11.277Z,47.55
2019-05-23T04:36:15.449Z,54.27
2019-05-23T04:38:19.149Z,52.60
2019-05-23T04:40:23.356Z,52.20
2019-05-23T04:42:27.169Z,52.65
2019-05-23T04:44:30.966Z,51.95
2019-05-23T04:46:35.837Z,52.53
2019-05-23T04:48:39.834Z,49.05
2019-05-23T04:50:43.846Z,55.98
2019-05-23T04:52:47.654Z,47.62
2019-05-23T04:54:51.468Z,50.95
2019-05-23T04:56:55.089Z,50.15
2019-05-23T04:58:59.262Z,48.40
2019-05-23T05:01:04.108Z,51.90
2019-05-23T05:03:08.805Z,54.30
2019-05-23T05:05:13.862Z,52.20
2019-05-23T05:07:18.178Z,53.95
2019-05-23T05:09:23.366Z,53.63
2019-05-23T05:11:30.539Z,51.58
2019-05-23T05:13:33.696Z,51.25
2019-05-23T05:15:37.501Z,47.60
2019-05-23T05:17:41.826Z,47.95
2019-05-23T05:19:45.692Z,46.58
2019-05-23T05:21:49.369Z,48.35
2019-05-23T05:23:53.175Z,49.25
2019-05-23T05:25:56.733Z,48.80
2019-05-23T05:28:00.987Z,49.85
2019-05-23T05:30:09.613Z,51.35
2019-05-23T05:32:14.813Z,47.27
2019-05-23T05:34:18.597Z,48.63
2019-05-23T05:36:22.963Z,47.50
2019-05-23T05:38:28.737Z,47.90
2019-05-23T05:40:33.298Z,47.80
2019-05-23T05:42:37.865Z,47.58
2019-05-23T05:44:42.293Z,45.25
2019-05-23T05:46:45.899Z,48.05
2019-05-23T05:48:50.185Z,43.63
2019-05-23T05:50:54.178Z,43.80
2019-05-23T05:52:58.070Z,49.45
2019-05-23T05:55:01.718Z,52.75
2019-05-23T05:57:06.705Z,53.68
2019-05-23T05:59:10.253Z,54.42
2019-05-23T06:01:32.430Z,59.13
2019-05-23T06:03:20.168Z,56.37
2019-05-23T06:05:42.278Z,50.75
2019-05-23T06:07:47.927Z,51.70
2019-05-23T06:09:54.011Z,51.45
2019-05-23T06:11:58.730Z,48.25
2019-05-23T06:14:02.945Z,46.75
2019-05-23T06:16:06.561Z,46.90
2019-05-23T06:18:10.941Z,43.23
2019-05-23T06:20:14.897Z,40.12
2019-05-23T06:22:20.231Z,40.75
2019-05-23T06:24:41.798Z,40.88
2019-05-23T06:26:30.213Z,37.35
2019-05-23T06:28:33.974Z,36.80
2019-05-23T06:30:39.706Z,36.33
2019-05-23T06:32:43.434Z,41.10
2019-05-23T06:34:47.957Z,43.65
2019-05-23T06:36:51.956Z,43.20
2019-05-23T06:38:56.271Z,43.85
2019-05-23T06:40:59.961Z,42.23
2019-05-23T06:43:04.525Z,41.90
2019-05-23T06:45:11.446Z,41.53
2019-05-23T06:47:15.069Z,40.17
2019-05-23T06:49:18.798Z,40.20
2019-05-23T06:51:23.494Z,46.40
2019-05-23T06:53:27.115Z,49.33
2019-05-23T06:55:30.654Z,45.60
2019-05-23T06:57:34.274Z,57.40
2019-05-23T06:59:37.925Z,54.00
2019-05-23T07:01:41.645Z,51.73
2019-05-23T07:03:45.769Z,51.60
2019-05-23T07:05:49.776Z,55.05
2019-05-23T07:07:53.767Z,53.95
2019-05-23T07:09:58.209Z,51.02
2019-05-23T07:12:03.011Z,49.88
2019-05-23T07:14:08.079Z,51.30
2019-05-23T07:16:12.458Z,53.95
2019-05-23T07:18:16.165Z,54.85
2019-05-23T07:20:19.769Z,53.40
2019-05-23T07:22:23.482Z,56.90
2019-05-23T07:24:28.216Z,52.08
2019-05-23T07:26:32.923Z,50.60
2019-05-23T07:28:37.510Z,50.03
2019-05-23T07:30:41.533Z,49.80
2019-05-23T07:32:45.204Z,52.40
2019-05-23T07:34:49.288Z,49.77
2019-05-23T07:36:53.538Z,50.67
2019-05-23T07:38:57.482Z,47.67
2019-05-23T07:41:02.095Z,49.58
2019-05-23T07:43:06.890Z,48.55
2019-05-23T07:45:14.615Z,48.60
2019-05-23T07:47:18.703Z,51.92
2019-05-23T07:49:22.287Z,48.13
2019-05-23T07:51:29.656Z,49.75
2019-05-23T07:53:44.019Z,47.43
2019-05-23T07:55:49.665Z,53.23
2019-05-23T07:57:53.478Z,51.37
2019-05-23T07:59:57.859Z,53.73
2019-05-23T08:02:11.703Z,59.48
2019-05-23T08:04:21.839Z,52.00
2019-05-23T08:06:21.582Z,51.18
2019-05-23T08:08:25.252Z,47.33
2019-05-23T08:10:33.879Z,50.52
2019-05-23T08:12:34.689Z,45.15
2019-05-23T08:14:38.231Z,40.88
2019-05-23T08:16:42.109Z,51.68
2019-05-23T08:18:45.932Z,55.60
2019-05-23T08:20:49.570Z,52.53
2019-05-23T08:22:53.391Z,47.53
2019-05-23T08:24:57.482Z,54.15
2019-05-23T08:27:02.714Z,39.00
2019-05-23T08:29:25.337Z,39.13
2019-05-23T08:31:12.710Z,37.25
2019-05-23T08:33:16.423Z,39.40
2019-05-23T08:35:20.861Z,37.98
2019-05-23T08:37:25.485Z,37.42
2019-05-23T08:39:31.139Z,34.92
2019-05-23T08:41:35.605Z,32.58
2019-05-23T08:43:39.789Z,32.75
2019-05-23T08:45:43.405Z,33.20
2019-05-23T08:47:47.023Z,34.10
2019-05-23T08:49:51.021Z,33.02
2019-05-23T08:51:55.202Z,30.48
2019-05-23T08:53:59.450Z,34.18
2019-05-23T08:56:10.167Z,33.25
2019-05-23T08:58:11.959Z,35.28
2019-05-23T09:00:17.423Z,39.23
2019-05-23T09:02:21.438Z,40.63
2019-05-23T09:04:25.430Z,45.90
2019-05-23T09:06:29.043Z,61.18
2019-05-23T09:08:34.823Z,37.20
2019-05-23T09:10:39.502Z,30.17
2019-05-23T09:12:43.377Z,31.52
2019-05-23T09:14:47.446Z,31.15
2019-05-23T09:16:52.304Z,30.32
2019-05-23T09:18:55.930Z,31.85
2019-05-23T09:21:00.298Z,32.15
2019-05-23T09:23:04.434Z,31.68
2019-05-23T09:25:08.608Z,31.30
2019-05-23T09:27:12.770Z,33.80
2019-05-23T09:29:17.045Z,34.08
2019-05-23T09:31:21.871Z,29.50
2019-05-23T09:33:25.497Z,31.00
2019-05-23T09:35:30.170Z,41.30
2019-05-23T09:37:35.318Z,35.60
2019-05-23T09:39:40.769Z,33.05
2019-05-23T09:41:44.797Z,31.45
2019-05-23T09:43:48.512Z,27.07
2019-05-23T09:45:52.931Z,25.80
2019-05-23T09:47:56.541Z,24.05
2019-05-23T09:50:00.206Z,21.33
2019-05-23T09:52:04.392Z,21.50
2019-05-23T09:54:08.729Z,19.75
2019-05-23T09:56:12.409Z,20.92
2019-05-23T09:58:16.343Z,21.45
2019-05-23T10:00:23.519Z,21.62
2019-05-23T10:02:28.347Z,23.30
2019-05-23T10:04:32.212Z,24.43
2019-05-23T10:06:36.345Z,24.52
2019-05-23T10:08:39.897Z,25.92
2019-05-23T10:10:44.096Z,24.20
2019-05-23T10:12:47.776Z,25.40
2019-05-23T10:14:51.466Z,23.07
2019-05-23T10:16:55.296Z,22.25
2019-05-23T10:18:59.045Z,22.87
2019-05-23T10:21:02.762Z,22.98
2019-05-23T10:23:06.306Z,22.90
2019-05-23T10:25:10.451Z,24.30
2019-05-23T10:27:14.707Z,23.95
2019-05-23T10:29:18.349Z,25.92
2019-05-23T10:31:23.081Z,27.25
2019-05-23T10:33:27.453Z,23.85
2019-05-23T10:35:32.030Z,25.65
2019-05-23T10:37:36.360Z,25.68
2019-05-23T10:39:43.067Z,22.07
2019-05-23T10:41:46.866Z,21.65
2019-05-23T10:43:50.504Z,23.00
2019-05-23T10:45:54.215Z,22.00
2019-05-23T10:47:57.984Z,21.97
2019-05-23T10:50:07.885Z,21.65
2019-05-23T10:52:08.390Z,20.92
2019-05-23T10:54:12.504Z,18.80
2019-05-23T10:56:20.248Z,18.45
2019-05-23T10:58:22.405Z,18.85
2019-05-23T11:00:27.986Z,18.75
2019-05-23T11:02:31.901Z,20.45
2019-05-23T11:04:35.479Z,18.98
2019-05-23T11:06:39.247Z,20.10
2019-05-23T11:08:43.263Z,22.62
2019-05-23T11:10:47.661Z,18.60
2019-05-23T11:12:51.457Z,19.07
2019-05-23T11:14:55.351Z,17.32
2019-05-23T11:16:59.354Z,16.05
2019-05-23T11:19:03.406Z,17.57
2019-05-23T11:21:07.430Z,17.07
2019-05-23T11:23:13.252Z,19.82
2019-05-23T11:25:17.634Z,19.90
2019-05-23T11:27:22.257Z,21.25
2019-05-23T11:29:27.343Z,20.95
2019-05-23T11:31:31.967Z,20.40
2019-05-23T11:33:35.922Z,19.17
2019-05-23T11:35:39.907Z,19.80
2019-05-23T11:37:43.834Z,21.02
2019-05-23T11:39:49.840Z,19.50
2019-05-23T11:41:53.790Z,19.17
2019-05-23T11:43:57.698Z,21.12
2019-05-23T11:46:03.200Z,22.60
2019-05-23T11:48:08.510Z,21.35
2019-05-23T11:50:12.294Z,23.83
2019-05-23T11:52:16.100Z,28.30
2019-05-23T11:54:20.567Z,23.87
2019-05-23T11:56:24.593Z,23.60
2019-05-23T11:58:32.136Z,25.08
2019-05-23T12:00:51.900Z,25.48
2019-05-23T12:02:55.454Z,25.82
2019-05-23T12:05:01.064Z,27.30
2019-05-23T12:07:09.428Z,25.00
2019-05-23T12:09:13.543Z,27.02
2019-05-23T12:11:18.162Z,26.02
2019-05-23T12:13:21.875Z,25.35
2019-05-23T12:15:27.129Z,26.20
2019-05-23T12:17:31.310Z,25.37
2019-05-23T12:19:35.259Z,25.80
2019-05-23T12:21:39.481Z,24.65
2019-05-23T12:23:43.321Z,26.57
2019-05-23T12:25:47.638Z,26.75
2019-05-23T12:27:52.055Z,28.20
2019-05-23T12:29:55.780Z,26.80
2019-05-23T12:32:00.127Z,28.30
2019-05-23T12:34:03.810Z,26.73
2019-05-23T12:36:08.565Z,28.70
2019-05-23T12:38:12.278Z,26.87
2019-05-23T12:40:16.276Z,28.40
2019-05-23T12:42:19.902Z,30.72
2019-05-23T12:44:23.617Z,28.02
2019-05-23T12:46:27.270Z,30.43
2019-05-23T12:48:44.942Z,30.62
2019-05-23T12:50:53.906Z,31.68
2019-05-23T12:52:56.370Z,28.25
2019-05-23T12:55:00.054Z,30.90
2019-05-23T12:57:04.759Z,37.33
2019-05-23T12:59:09.244Z,32.50
2019-05-23T13:01:15.600Z,34.05
2019-05-23T13:03:19.466Z,33.08
2019-05-23T13:05:24.021Z,31.87
2019-05-23T13:07:36.185Z,30.88
2019-05-23T13:09:33.618Z,32.78
2019-05-23T13:11:37.922Z,32.58
2019-05-23T13:13:41.469Z,34.40
2019-05-23T13:15:45.326Z,32.08
2019-05-23T13:17:49.053Z,33.50
2019-05-23T13:19:53.126Z,34.27
2019-05-23T13:21:57.857Z,33.92
2019-05-23T13:24:01.563Z,32.58
2019-05-23T13:26:06.026Z,34.25
2019-05-23T13:28:10.467Z,35.75
2019-05-23T13:30:14.887Z,35.68
2019-05-23T13:32:19.902Z,33.33
2019-05-23T13:34:23.561Z,33.98
2019-05-23T13:36:27.542Z,33.30
2019-05-23T13:38:31.561Z,32.30
2019-05-23T13:40:35.460Z,34.43
2019-05-23T13:42:39.549Z,31.65
2019-05-23T13:44:44.269Z,31.85
2019-05-23T13:46:48.884Z,32.93
2019-05-23T13:48:53.014Z,30.85
2019-05-23T13:50:56.942Z,31.10
2019-05-23T13:53:01.446Z,31.73
2019-05-23T13:55:06.831Z,31.48
2019-05-23T13:57:10.542Z,31.57
2019-05-23T13:59:14.383Z,33.83
2019-05-23T14:01:18.834Z,34.35
2019-05-23T14:03:23.222Z,38.45
2019-05-23T14:05:27.232Z,35.43
2019-05-23T14:07:31.275Z,34.27
2019-05-23T14:09:36.982Z,35.20
2019-05-23T14:11:41.062Z,36.90
2019-05-23T14:13:45.962Z,38.83
2019-05-23T14:15:52.472Z,35.55
2019-05-23T14:17:56.801Z,35.48
2019-05-23T14:20:01.210Z,37.08
2019-05-23T14:22:05.427Z,44.18
2019-05-23T14:24:09.137Z,38.63
2019-05-23T14:26:14.715Z,39.65
2019-05-23T14:28:18.804Z,39.78
2019-05-23T14:30:36.098Z,40.17
2019-05-23T14:32:47.486Z,43.75
2019-05-23T14:34:53.253Z,40.63
2019-05-23T14:37:04.459Z,53.65
2019-05-23T14:39:10.379Z,52.33
2019-05-23T14:41:14.632Z,64.92
2019-05-23T14:43:22.960Z,50.52
2019-05-23T14:45:34.883Z,55.63
2019-05-23T14:47:44.573Z,51.42
2019-05-23T14:50:06.668Z,55.88
2019-05-23T14:52:28.785Z,54.55
2019-05-23T14:54:40.142Z,55.67
2019-05-23T14:56:44.475Z,51.63
2019-05-23T14:58:48.685Z,49.75
2019-05-23T15:00:52.796Z,47.98
2019-05-23T15:02:56.454Z,47.83
2019-05-23T15:05:00.391Z,46.10
2019-05-23T15:07:04.227Z,49.35
2019-05-23T15:09:11.531Z,49.90
2019-05-23T15:11:14.958Z,48.20
2019-05-23T15:13:19.358Z,44.55
2019-05-23T15:15:24.422Z,46.73
2019-05-23T15:17:28.300Z,48.65
2019-05-23T15:19:42.118Z,70.37
2019-05-23T15:21:37.541Z,61.48
2019-05-23T15:23:42.298Z,68.33
2019-05-23T15:25:46.285Z,71.35
2019-05-23T15:27:49.844Z,104.38
2019-05-23T15:29:54.621Z,107.40
2019-05-23T15:32:02.346Z,69.15
2019-05-23T15:34:04.451Z,66.75
2019-05-23T15:36:09.490Z,74.82
2019-05-23T15:38:13.067Z,112.52
2019-05-23T15:40:17.118Z,73.87
2019-05-23T15:42:21.021Z,75.40
2019-05-23T15:44:29.213Z,65.25
2019-05-23T15:46:31.695Z,64.87
2019-05-23T15:48:35.602Z,58.83
2019-05-23T15:50:43.871Z,51.88
2019-05-23T15:53:00.957Z,55.92
2019-05-23T15:55:07.579Z,52.83
2019-05-23T15:57:15.414Z,53.25
2019-05-23T15:59:20.785Z,49.98
2019-05-23T16:01:26.039Z,44.20
2019-05-23T16:03:47.850Z,43.45
2019-05-23T16:05:51.691Z,41.28
2019-05-23T16:07:55.329Z,112.90
2019-05-23T16:09:59.526Z,66.65
2019-05-23T16:12:03.419Z,48.73
2019-05-23T16:14:07.230Z,49.75
2019-05-23T16:16:10.776Z,51.33
2019-05-23T16:18:14.811Z,47.80
2019-05-23T16:20:18.867Z,46.00
2019-05-23T16:22:24.350Z,46.88
2019-05-23T16:24:28.477Z,44.88
2019-05-23T16:26:49.568Z,46.95
2019-05-23T16:28:54.322Z,41.50
2019-05-23T16:30:58.484Z,39.73
2019-05-23T16:33:02.339Z,41.92
2019-05-23T16:35:07.382Z,41.58
2019-05-23T16:37:11.360Z,43.58
2019-05-23T16:39:16.056Z,41.88
2019-05-23T16:41:20.480Z,45.23
2019-05-23T16:43:24.312Z,42.50
2019-05-23T16:45:28.390Z,155.82
2019-05-23T16:47:32.589Z,121.50
2019-05-23T16:49:36.334Z,204.07
2019-05-23T16:51:40.025Z,175.60
2019-05-23T16:53:44.045Z,174.30
2019-05-23T16:56:02.329Z,171.15
2019-05-23T16:58:07.810Z,135.93
2019-05-23T17:00:31.583Z,111.60
2019-05-23T17:02:49.413Z,178.90
2019-05-23T17:05:11.069Z,140.03
2019-05-23T17:07:25.492Z,152.87
2019-05-23T17:09:37.790Z,92.20
2019-05-23T17:11:45.820Z,94.50
2019-05-23T17:13:51.167Z,80.57
2019-05-23T17:16:00.077Z,66.80
2019-05-23T17:18:11.430Z,54.20
2019-05-23T17:20:19.946Z,67.17
2019-05-23T17:22:33.633Z,44.45
2019-05-23T17:24:41.878Z,49.23
2019-05-23T17:26:50.415Z,53.52
2019-05-23T17:28:55.899Z,50.38
2019-05-23T17:31:04.314Z,52.40
2019-05-23T17:33:08.865Z,50.23
2019-05-23T17:35:13.126Z,50.03
2019-05-23T17:37:17.735Z,46.30
2019-05-23T17:39:22.323Z,51.05
2019-05-23T17:41:27.167Z,48.48
2019-05-23T17:43:31.184Z,45.60
2019-05-23T17:45:34.715Z,47.75
2019-05-23T17:47:38.864Z,48.55
2019-05-23T17:49:43.042Z,47.20
2019-05-23T17:51:48.599Z,49.73
2019-05-23T17:53:52.276Z,47.83
2019-05-23T17:55:56.731Z,48.15
2019-05-23T17:58:00.278Z,47.35
2019-05-23T18:00:06.258Z,45.88
2019-05-23T18:02:10.766Z,42.90
2019-05-23T18:04:15.529Z,44.30
2019-05-23T18:06:19.319Z,41.28
2019-05-23T18:08:23.777Z,39.83
2019-05-23T18:10:43.328Z,44.33
2019-05-23T18:12:33.321Z,43.25
2019-05-23T18:14:39.744Z,47.53
2019-05-23T18:16:43.985Z,48.42
2019-05-23T18:18:47.734Z,39.08
2019-05-23T18:20:52.098Z,37.75
2019-05-23T18:22:56.230Z,37.80
2019-05-23T18:25:01.020Z,35.75
2019-05-23T18:27:07.067Z,33.65
2019-05-23T18:29:14.180Z,37.58
2019-05-23T18:31:31.066Z,34.13
2019-05-23T18:33:34.981Z,35.92
2019-05-23T18:39:14.406Z,35.03
2019-05-23T18:41:19.473Z,32.95
2019-05-23T18:43:25.026Z,33.25
2019-05-23T18:49:16.010Z,27.42
2019-05-23T18:51:20.090Z,30.20
2019-05-23T18:53:23.894Z,28.47
2019-05-23T18:59:15.786Z,29.92
2019-05-23T19:01:24.094Z,32.58
2019-05-23T19:03:28.645Z,29.37
2019-05-23T19:09:16.433Z,28.07
2019-05-23T19:11:22.271Z,28.23
2019-05-23T19:13:26.789Z,28.70
2019-05-23T19:19:13.094Z,31.62
2019-05-23T19:21:18.136Z,28.23
2019-05-23T19:23:23.182Z,27.13
2019-05-23T19:29:13.828Z,26.12
2019-05-23T19:31:18.548Z,37.13
2019-05-23T19:33:23.066Z,41.13
2019-05-23T19:35:27.931Z,45.55
2019-05-23T19:37:32.309Z,41.68
2019-05-23T19:39:36.590Z,38.58
2019-05-23T19:41:40.559Z,48.90
2019-05-23T19:43:48.129Z,46.45
2019-05-23T19:45:51.037Z,52.33
2019-05-23T19:47:54.588Z,45.58
2019-05-23T19:49:58.153Z,50.35
2019-05-23T19:52:01.865Z,49.65
2019-05-23T19:54:06.853Z,41.18
2019-05-23T19:56:10.875Z,40.43
2019-05-23T19:58:17.309Z,30.75
2019-05-23T20:00:23.089Z,26.70
2019-05-23T20:02:46.864Z,23.98
2019-05-23T20:05:04.057Z,24.60
2019-05-23T20:07:08.303Z,22.17
2019-05-23T20:09:15.494Z,21.25
2019-05-23T20:11:19.376Z,23.57
2019-05-23T20:13:23.141Z,21.12
2019-05-23T20:15:27.294Z,21.15
2019-05-23T20:17:31.529Z,22.98
2019-05-23T20:19:35.349Z,22.58
2019-05-23T20:21:39.393Z,21.85
2019-05-23T20:23:43.046Z,25.72
2019-05-23T20:25:46.869Z,23.77
2019-05-23T20:27:50.512Z,20.92
2019-05-23T20:29:54.129Z,20.40
2019-05-23T20:31:57.743Z,21.27
2019-05-23T20:34:01.453Z,22.10
2019-05-23T20:36:06.661Z,21.70
2019-05-23T20:38:10.269Z,22.98
2019-05-23T20:40:14.977Z,21.17
2019-05-23T20:42:19.366Z,19.98
2019-05-23T20:44:23.153Z,21.55
2019-05-23T20:46:27.169Z,21.65
2019-05-23T20:48:30.959Z,22.30
2019-05-23T20:50:36.078Z,21.33
2019-05-23T20:52:40.050Z,21.87
2019-05-23T20:54:44.119Z,20.20
2019-05-23T20:56:47.941Z,28.73
2019-05-23T20:58:51.557Z,47.48
2019-05-23T21:00:59.551Z,27.02
2019-05-23T21:03:03.734Z,28.47
2019-05-23T21:05:07.930Z,28.60
2019-05-23T21:07:11.981Z,26.17
2019-05-23T21:09:16.241Z,29.90
2019-05-23T21:11:20.011Z,36.65
2019-05-23T21:13:23.945Z,35.85
2019-05-23T21:15:27.779Z,30.00
2019-05-23T21:17:31.964Z,24.40
2019-05-23T21:19:36.493Z,25.48
2019-05-23T21:21:40.385Z,22.80
2019-05-23T21:23:44.323Z,21.60
2019-05-23T21:25:49.897Z,22.35
2019-05-23T21:27:53.505Z,22.45
2019-05-23T21:29:57.240Z,19.52
2019-05-23T21:32:00.746Z,18.37
2019-05-23T21:34:04.778Z,21.25
2019-05-23T21:36:08.337Z,20.72
2019-05-23T21:38:12.015Z,19.85
2019-05-23T21:40:30.701Z,20.70
2019-05-23T21:42:47.406Z,18.95
2019-05-23T21:44:39.751Z,19.52
2019-05-23T21:46:43.317Z,19.55
2019-05-23T21:48:46.901Z,17.48
2019-05-23T21:50:50.764Z,18.02
2019-05-23T21:52:54.294Z,20.25
2019-05-23T21:54:57.941Z,19.45
2019-05-23T21:57:01.491Z,19.32
2019-05-23T21:59:05.178Z,18.50
2019-05-23T22:01:11.290Z,20.85
2019-05-23T22:03:16.141Z,19.23
2019-05-23T22:05:20.232Z,22.25
2019-05-23T22:07:23.849Z,20.30
2019-05-23T22:09:27.418Z,19.75
2019-05-23T22:11:31.051Z,18.85
2019-05-23T22:13:34.670Z,21.87
2019-05-23T22:15:38.526Z,18.92
2019-05-23T22:17:42.234Z,19.20
2019-05-23T22:19:45.777Z,20.20
2019-05-23T22:21:49.245Z,18.05
2019-05-23T22:23:52.857Z,19.82
2019-05-23T22:25:56.489Z,17.82
2019-05-23T22:28:00.066Z,16.48
2019-05-23T22:30:05.646Z,15.95
2019-05-23T22:32:10.094Z,14.78
2019-05-23T22:34:27.665Z,16.30
2019-05-23T22:36:31.439Z,16.05
2019-05-23T22:38:35.329Z,18.55
2019-05-23T22:40:39.042Z,22.35
2019-05-23T22:42:42.596Z,23.40
2019-05-23T22:44:46.249Z,20.27
2019-05-23T22:46:50.129Z,17.37
2019-05-23T22:48:53.676Z,14.78
2019-05-23T22:50:57.494Z,14.73
2019-05-23T22:53:01.420Z,12.70
2019-05-23T22:55:06.690Z,13.08
2019-05-23T22:57:10.405Z,12.20
2019-05-23T22:59:13.953Z,13.30
2019-05-23T23:01:19.585Z,11.93
2019-05-23T23:03:23.137Z,11.90
2019-05-23T23:05:27.321Z,12.88
2019-05-23T23:07:31.141Z,12.55
2019-05-23T23:09:34.802Z,12.03
2019-05-23T23:11:38.393Z,12.95
2019-05-23T23:13:42.013Z,12.43
2019-05-23T23:15:45.820Z,10.53
2019-05-23T23:17:49.602Z,10.03
2019-05-23T23:19:53.149Z,10.15
2019-05-23T23:21:57.094Z,10.10
2019-05-23T23:24:01.003Z,10.70
2019-05-23T23:26:04.685Z,10.65
2019-05-23T23:28:08.273Z,10.18
2019-05-23T23:30:15.653Z,10.40
2019-05-23T23:32:19.185Z,10.32
2019-05-23T23:34:22.896Z,9.83
2019-05-23T23:36:26.426Z,10.85
2019-05-23T23:38:29.982Z,9.45
2019-05-23T23:40:34.395Z,9.98
2019-05-23T23:42:37.938Z,10.55
2019-05-23T23:44:40.913Z,9.45
2019-05-23T23:47:02.457Z,8.78
2019-05-23T23:49:24.185Z,9.70
2019-05-23T23:51:45.697Z,8.80
2019-05-23T23:54:07.161Z,10.53
2019-05-23T23:56:29.449Z,11.10
2019-05-23T23:58:32.290Z,9.73
